Pagrindinis puslapis
METAR-TAF:

METAR-TAF

Oro uostai :

Emmonak, Aliaska, Jungtinės Amerikos Valstijos

platuma: 62-47N, ilguma: 164-30W, Aukštis: 4 m

Dabartinis oras

Ataskaita buvo paskelbta 24 valandos ir 50 minutes, ne 05:56 UTC
Vėjas 10 kt iš Šiaurės Rytų
Temperatūra -18°C
Drėgmė 84%
Slėgis 1012 hPa
Matomumas: 16.1 km
Giedras dangus

METAR: PAEM 270556Z AUTO 04010KT 10SM CLR M18/M20 A2988 RMK AO2 SLP118 T11781200 11144 21178 53002 FZRANO

Laikas: 21:46 (06:46 UTC)


TAF: trūkstamas

Orai ataskaitas ir orų prognozės (METAR, TAF).

turimą stotys yra geltonos ir raudonos taškus žemėlapyje.

Perkelti pele per norėdami pamatyti stoties vardą.

Tada spustelėkite, norėdami matyti oro stebėjimo ir prognozės.

Norėdami pakeisti žemėlapį: spustelėkite ant žalios mygtukų su juodo kryžiaus žemyn,; žalią mygtuką su brūkšneliu, jei norite nutolinti; arba žalių rodyklių gretimoms žemėlapius.


METAR-TAF: